createdAt,value
2023-02-28T00:00:34.678Z,2.17
2023-02-28T00:03:05.256Z,2.92
2023-02-28T00:05:38.140Z,3.42
2023-02-28T00:08:08.656Z,3.78
2023-02-28T00:10:38.908Z,2.53
2023-02-28T00:13:10.473Z,2.88
2023-02-28T00:15:40.621Z,3.33
2023-02-28T00:18:10.717Z,2.88
2023-02-28T00:20:43.421Z,5.95
2023-02-28T00:23:15.476Z,4.05
2023-02-28T00:25:45.596Z,1.90
2023-02-28T00:28:16.286Z,2.03
2023-02-28T00:30:46.684Z,1.73
2023-02-28T00:33:17.287Z,3.58
2023-02-28T00:35:50.202Z,2.17
2023-02-28T00:38:21.117Z,2.03
2023-02-28T00:40:51.297Z,2.67
2023-02-28T00:43:21.392Z,2.15
2023-02-28T00:45:51.576Z,1.98
2023-02-28T00:48:22.017Z,1.20
2023-02-28T00:50:55.798Z,2.22
2023-02-28T00:53:25.910Z,3.42
2023-02-28T00:55:56.665Z,1.83
2023-02-28T00:58:26.656Z,1.98
2023-02-28T01:00:57.402Z,1.20
2023-02-28T01:03:27.618Z,1.52
2023-02-28T01:06:00.758Z,1.30
2023-02-28T01:08:31.364Z,2.13
2023-02-28T01:11:01.564Z,2.03
2023-02-28T01:13:31.595Z,3.40
2023-02-28T01:16:01.882Z,1.58
2023-02-28T01:18:32.544Z,1.58
2023-02-28T01:21:08.039Z,2.05
2023-02-28T01:23:38.202Z,1.48
2023-02-28T01:26:09.754Z,1.42
2023-02-28T01:28:43.563Z,2.33
2023-02-28T01:31:14.427Z,1.48
2023-02-28T01:33:45.304Z,1.88
2023-02-28T01:36:20.092Z,2.17
2023-02-28T01:38:50.767Z,1.95
2023-02-28T01:41:27.747Z,2.35
2023-02-28T01:44:06.498Z,1.85
2023-02-28T01:46:38.671Z,2.47
2023-02-28T01:49:13.507Z,1.58
2023-02-28T01:51:51.944Z,2.38
2023-02-28T01:54:26.453Z,3.53
2023-02-28T01:57:00.969Z,3.15
2023-02-28T01:59:37.139Z,2.15
2023-02-28T02:02:07.617Z,2.63
2023-02-28T02:04:44.223Z,2.65
2023-02-28T02:07:18.232Z,2.65
2023-02-28T02:12:35.196Z,4.07
2023-02-28T02:15:12.344Z,2.65
2023-02-28T02:17:46.936Z,2.85
2023-02-28T02:20:45.329Z,4.53
2023-02-28T02:23:34.300Z,3.30
2023-02-28T02:26:22.603Z,2.78
2023-02-28T02:29:32.173Z,3.45
2023-02-28T02:32:33.942Z,3.35
2023-02-28T02:35:16.131Z,1.92
2023-02-28T02:37:54.571Z,2.30
2023-02-28T02:40:28.210Z,2.72
2023-02-28T02:43:04.155Z,1.85
2023-02-28T02:45:39.730Z,4.03
2023-02-28T02:48:14.333Z,2.15
2023-02-28T02:50:49.267Z,4.05
2023-02-28T02:53:25.228Z,3.67
2023-02-28T02:55:57.497Z,2.38
2023-02-28T02:58:32.825Z,2.88
2023-02-28T03:01:05.989Z,4.03
2023-02-28T03:03:37.220Z,4.60
2023-02-28T03:06:11.234Z,2.00
2023-02-28T03:11:19.304Z,2.38
2023-02-28T03:13:58.509Z,2.20
2023-02-28T03:16:54.156Z,1.98
2023-02-28T03:22:16.665Z,1.83
2023-02-28T03:24:53.597Z,2.97
2023-02-28T03:27:30.204Z,2.35
2023-02-28T03:30:05.240Z,3.47
2023-02-28T03:32:40.502Z,3.25
2023-02-28T03:35:15.305Z,3.20
2023-02-28T03:37:50.364Z,2.60
2023-02-28T03:40:24.093Z,2.00
2023-02-28T03:42:58.111Z,2.28
2023-02-28T03:45:31.590Z,4.28
2023-02-28T03:48:06.694Z,2.30
2023-02-28T03:50:42.096Z,1.98
2023-02-28T03:53:20.690Z,1.70
2023-02-28T03:55:54.362Z,1.65
2023-02-28T03:58:31.103Z,2.47
2023-02-28T04:01:09.691Z,3.28
2023-02-28T04:03:40.829Z,1.35
2023-02-28T04:06:17.019Z,1.90
2023-02-28T04:08:49.955Z,1.73
2023-02-28T04:11:26.258Z,2.42
2023-02-28T04:13:56.628Z,1.58
2023-02-28T04:16:35.101Z,1.65
2023-02-28T04:19:06.948Z,1.63
2023-02-28T04:21:38.595Z,1.75
2023-02-28T04:24:15.444Z,1.73
2023-02-28T04:26:47.451Z,2.38
2023-02-28T04:29:22.188Z,2.58
2023-02-28T04:31:52.449Z,2.90
2023-02-28T04:34:22.496Z,3.30
2023-02-28T04:37:10.355Z,4.00
2023-02-28T04:39:45.971Z,2.28
2023-02-28T04:42:18.692Z,3.83
2023-02-28T04:44:48.857Z,3.17
2023-02-28T04:47:19.179Z,3.25
2023-02-28T04:49:49.654Z,3.25
2023-02-28T04:52:19.653Z,1.92
2023-02-28T04:54:52.663Z,3.72
2023-02-28T04:57:22.599Z,3.65
2023-02-28T04:59:52.576Z,2.35
2023-02-28T05:02:22.760Z,1.80
2023-02-28T05:04:52.987Z,2.38
2023-02-28T05:07:23.233Z,3.78
2023-02-28T05:09:56.110Z,5.03
2023-02-28T05:12:26.114Z,3.85
2023-02-28T05:14:56.215Z,4.03
2023-02-28T05:17:26.305Z,2.65
2023-02-28T05:20:06.507Z,2.88
2023-02-28T05:22:44.076Z,1.77
2023-02-28T05:25:24.989Z,2.42
2023-02-28T05:27:55.016Z,2.53
2023-02-28T05:30:25.212Z,2.10
2023-02-28T05:32:55.930Z,1.50
2023-02-28T05:35:26.121Z,3.92
2023-02-28T05:37:56.379Z,3.20
2023-02-28T05:40:29.100Z,2.38
2023-02-28T05:42:59.110Z,4.57
2023-02-28T05:45:29.586Z,4.05
2023-02-28T05:48:00.189Z,4.38
2023-02-28T05:50:30.405Z,3.88
2023-02-28T05:53:00.351Z,3.10
2023-02-28T05:55:33.238Z,3.55
2023-02-28T05:58:03.694Z,3.72
2023-02-28T06:00:34.017Z,2.85
2023-02-28T06:03:04.210Z,3.45
2023-02-28T06:05:34.873Z,2.63
2023-02-28T06:08:04.834Z,2.92
2023-02-28T06:10:37.716Z,4.00
2023-02-28T06:13:08.719Z,6.07
2023-02-28T06:15:38.850Z,3.35
2023-02-28T06:18:09.331Z,2.83
2023-02-28T06:20:39.292Z,3.92
2023-02-28T06:23:09.635Z,3.78
2023-02-28T06:25:42.297Z,4.28
2023-02-28T06:28:12.301Z,2.70
2023-02-28T06:30:44.468Z,3.45
2023-02-28T06:33:15.530Z,3.45
2023-02-28T06:35:47.898Z,3.45
2023-02-28T06:38:19.200Z,3.35
2023-02-28T06:40:57.731Z,2.50
2023-02-28T06:43:29.731Z,1.77
2023-02-28T06:46:01.004Z,3.55
2023-02-28T06:48:31.539Z,2.08
2023-02-28T06:51:09.572Z,1.90
2023-02-28T06:53:39.935Z,1.80
2023-02-28T06:56:14.796Z,1.85
2023-02-28T06:58:45.512Z,1.98
2023-02-28T07:01:17.449Z,1.45
2023-02-28T07:03:47.693Z,1.48
2023-02-28T07:06:19.043Z,4.28
2023-02-28T07:08:49.263Z,2.47
2023-02-28T07:11:23.562Z,3.58
2023-02-28T07:13:53.496Z,2.35
2023-02-28T07:16:24.545Z,1.80
2023-02-28T07:18:57.008Z,3.70
2023-02-28T07:21:27.323Z,2.13
2023-02-28T07:23:57.720Z,2.85
2023-02-28T07:26:30.792Z,2.10
2023-02-28T07:29:00.896Z,3.00
2023-02-28T07:31:31.552Z,2.53
2023-02-28T07:34:01.707Z,2.15
2023-02-28T07:36:31.707Z,1.77
2023-02-28T07:39:02.677Z,3.72
2023-02-28T07:41:38.729Z,4.05
2023-02-28T07:44:09.058Z,2.33
2023-02-28T07:46:39.145Z,2.65
2023-02-28T07:49:10.535Z,4.50
2023-02-28T07:51:40.641Z,5.05
2023-02-28T07:54:14.823Z,5.70
2023-02-28T07:56:47.528Z,5.95
2023-02-28T07:59:17.564Z,5.72
2023-02-28T08:01:47.879Z,3.45
2023-02-28T08:04:18.146Z,5.30
2023-02-28T08:06:49.776Z,4.68
2023-02-28T08:11:55.298Z,5.07
2023-02-28T08:14:25.635Z,2.65
2023-02-28T08:16:55.872Z,3.15
2023-02-28T08:19:26.263Z,4.35
2023-02-28T08:21:56.308Z,4.60
2023-02-28T08:24:27.086Z,3.47
2023-02-28T08:26:59.795Z,4.43
2023-02-28T08:29:31.284Z,5.97
2023-02-28T08:32:01.521Z,3.15
2023-02-28T08:34:31.710Z,3.10
2023-02-28T08:37:01.644Z,4.25
2023-02-28T08:39:31.732Z,4.05
2023-02-28T08:42:08.224Z,3.38
2023-02-28T08:44:38.560Z,3.58
2023-02-28T08:47:08.786Z,3.63
2023-02-28T08:49:38.963Z,2.92
2023-02-28T08:52:12.004Z,3.20
2023-02-28T08:54:42.054Z,3.95
2023-02-28T08:57:14.669Z,6.53
2023-02-28T08:59:44.767Z,3.75
2023-02-28T09:02:17.191Z,4.70
2023-02-28T09:04:48.272Z,1.90
2023-02-28T09:07:18.309Z,2.63
2023-02-28T09:09:58.752Z,2.95
2023-02-28T09:12:36.398Z,4.10
2023-02-28T09:15:07.526Z,1.50
2023-02-28T09:17:37.903Z,2.08
2023-02-28T09:20:09.545Z,1.98
2023-02-28T09:22:39.809Z,4.32
2023-02-28T09:25:10.749Z,2.55
2023-02-28T09:27:43.460Z,3.20
2023-02-28T09:30:15.262Z,3.55
2023-02-28T09:32:53.180Z,1.60
2023-02-28T09:35:23.551Z,1.55
2023-02-28T09:37:55.384Z,2.08
2023-02-28T09:40:27.541Z,1.95
2023-02-28T09:43:03.629Z,3.38
2023-02-28T09:45:37.702Z,1.55
2023-02-28T09:48:13.705Z,2.05
2023-02-28T09:50:46.394Z,1.00
2023-02-28T09:53:24.173Z,1.45
2023-02-28T09:55:58.620Z,1.42
2023-02-28T09:58:41.109Z,1.33
2023-02-28T10:01:16.855Z,1.23
2023-02-28T10:03:53.227Z,1.40
2023-02-28T10:06:26.652Z,1.48
2023-02-28T10:09:04.775Z,1.37
2023-02-28T10:11:38.087Z,1.23
2023-02-28T10:14:17.023Z,1.80
2023-02-28T10:16:53.124Z,2.35
2023-02-28T10:19:27.848Z,1.60
2023-02-28T10:22:01.724Z,3.08
2023-02-28T10:24:36.356Z,2.35
2023-02-28T10:27:18.321Z,2.10
2023-02-28T10:29:56.093Z,2.85
2023-02-28T10:32:29.408Z,1.52
2023-02-28T10:35:03.405Z,1.35
2023-02-28T10:37:39.114Z,2.53
2023-02-28T10:40:11.128Z,1.10
2023-02-28T10:42:42.138Z,0.80
2023-02-28T10:45:19.908Z,1.83
2023-02-28T10:47:57.150Z,1.73
2023-02-28T10:50:39.152Z,1.80
2023-02-28T10:53:20.391Z,1.08
2023-02-28T10:56:01.943Z,1.27
2023-02-28T10:58:34.000Z,1.65
2023-02-28T11:01:07.067Z,0.85
2023-02-28T11:03:39.190Z,1.70
2023-02-28T11:06:12.090Z,1.13
2023-02-28T11:08:49.659Z,2.97
2023-02-28T11:11:21.008Z,1.15
2023-02-28T11:13:54.577Z,1.05
2023-02-28T11:16:37.066Z,2.05
2023-02-28T11:19:08.360Z,0.77
2023-02-28T11:21:41.833Z,1.30
2023-02-28T11:24:26.289Z,0.83
2023-02-28T11:26:56.756Z,0.82
2023-02-28T11:29:29.582Z,0.82
2023-02-28T11:32:17.302Z,0.98
2023-02-28T11:34:48.377Z,0.40
2023-02-28T11:37:25.798Z,0.70
2023-02-28T11:39:55.892Z,3.20
2023-02-28T11:42:48.123Z,1.02
2023-02-28T11:45:48.937Z,1.13
2023-02-28T11:48:26.973Z,1.13
2023-02-28T11:51:09.308Z,0.85
2023-02-28T11:53:59.279Z,2.38
2023-02-28T11:56:35.415Z,2.17
2023-02-28T11:59:30.854Z,0.77
2023-02-28T12:02:27.626Z,1.02
2023-02-28T12:05:15.300Z,0.60
2023-02-28T12:07:54.878Z,1.05
2023-02-28T12:10:29.063Z,1.88
2023-02-28T12:13:22.699Z,0.88
2023-02-28T12:16:04.302Z,1.00
2023-02-28T12:18:57.352Z,1.77
2023-02-28T12:21:40.773Z,2.05
2023-02-28T12:24:35.124Z,2.03
2023-02-28T12:27:09.543Z,1.63
2023-02-28T12:29:47.026Z,0.90
2023-02-28T12:32:21.547Z,1.13
2023-02-28T12:34:55.874Z,1.40
2023-02-28T12:40:07.699Z,4.20
2023-02-28T12:42:43.305Z,4.05
2023-02-28T12:45:21.863Z,2.25
2023-02-28T12:48:01.977Z,1.48
2023-02-28T12:50:34.536Z,2.83
2023-02-28T12:53:15.437Z,0.82
2023-02-28T12:55:55.095Z,1.17
2023-02-28T12:58:37.049Z,1.23
2023-02-28T13:01:38.644Z,1.08
2023-02-28T13:04:47.499Z,3.00
2023-02-28T13:07:45.925Z,1.48
2023-02-28T13:10:21.520Z,3.50
2023-02-28T13:12:54.701Z,2.28
2023-02-28T13:15:30.778Z,2.17
2023-02-28T13:18:04.484Z,2.50
2023-02-28T13:20:39.377Z,2.28
2023-02-28T13:23:45.723Z,4.03
2023-02-28T13:26:20.067Z,3.10
2023-02-28T13:29:35.198Z,2.72
2023-02-28T13:32:39.254Z,1.63
2023-02-28T13:35:43.756Z,3.33
2023-02-28T13:38:38.743Z,3.38
2023-02-28T13:41:42.834Z,2.42
2023-02-28T13:44:19.232Z,1.67
2023-02-28T13:47:20.036Z,2.03
2023-02-28T13:49:51.901Z,1.85
2023-02-28T13:52:27.301Z,2.00
2023-02-28T13:55:31.826Z,1.40
2023-02-28T13:58:27.708Z,1.20
2023-02-28T14:01:25.183Z,1.77
2023-02-28T14:04:15.045Z,1.95
2023-02-28T14:06:53.684Z,1.20
2023-02-28T14:09:30.854Z,2.75
2023-02-28T14:12:22.846Z,1.25
2023-02-28T14:15:01.419Z,1.58
2023-02-28T14:17:36.447Z,3.28
2023-02-28T14:20:09.034Z,2.22
2023-02-28T14:22:59.874Z,2.50
2023-02-28T14:25:41.557Z,1.42
2023-02-28T14:28:21.913Z,1.65
2023-02-28T14:31:11.087Z,2.13
2023-02-28T14:34:07.358Z,2.63
2023-02-28T14:36:41.637Z,2.75
2023-02-28T14:39:17.342Z,2.40
2023-02-28T14:41:48.920Z,1.17
2023-02-28T14:44:22.611Z,1.35
2023-02-28T14:46:56.628Z,1.98
2023-02-28T14:52:13.002Z,2.42
2023-02-28T14:54:44.552Z,1.40
2023-02-28T14:57:26.759Z,1.33
2023-02-28T15:00:12.708Z,1.70
2023-02-28T15:02:43.567Z,2.97
2023-02-28T15:05:34.350Z,1.27
2023-02-28T15:08:10.489Z,1.15
2023-02-28T15:10:41.324Z,2.47
2023-02-28T15:13:17.051Z,2.42
2023-02-28T15:16:01.944Z,2.10
2023-02-28T15:18:42.441Z,1.15
2023-02-28T15:21:18.803Z,2.10
2023-02-28T15:23:54.801Z,1.15
2023-02-28T15:26:30.198Z,3.25
2023-02-28T15:29:04.701Z,1.50
2023-02-28T15:34:42.228Z,1.38
2023-02-28T15:37:34.962Z,1.60
2023-02-28T15:40:17.703Z,1.33
2023-02-28T15:43:03.822Z,1.08
2023-02-28T15:45:42.560Z,1.77
2023-02-28T15:48:23.993Z,2.85
2023-02-28T15:51:00.227Z,1.52
2023-02-28T15:53:38.122Z,1.30
2023-02-28T15:56:19.634Z,0.75
2023-02-28T15:58:54.815Z,0.98
2023-02-28T16:01:31.556Z,1.17
2023-02-28T16:04:06.300Z,2.75
2023-02-28T16:06:44.452Z,1.30
2023-02-28T16:09:21.711Z,1.33
2023-02-28T16:11:55.435Z,2.45
2023-02-28T16:14:28.909Z,1.73
2023-02-28T16:17:06.884Z,2.03
2023-02-28T16:19:38.774Z,2.35
2023-02-28T16:22:10.246Z,2.13
2023-02-28T16:24:44.713Z,1.52
2023-02-28T16:27:23.248Z,1.20
2023-02-28T16:29:55.864Z,2.00
2023-02-28T16:32:28.101Z,0.85
2023-02-28T16:34:59.681Z,1.27
2023-02-28T16:37:32.874Z,2.67
2023-02-28T16:40:07.760Z,0.90
2023-02-28T16:42:42.190Z,0.98
2023-02-28T16:45:22.027Z,1.40
2023-02-28T16:47:53.570Z,1.60
2023-02-28T16:50:27.260Z,1.08
2023-02-28T16:52:59.613Z,1.83
2023-02-28T16:55:34.185Z,2.20
2023-02-28T16:58:07.461Z,1.70
2023-02-28T17:00:40.315Z,4.22
2023-02-28T17:03:30.780Z,1.10
2023-02-28T17:06:04.676Z,1.25
2023-02-28T17:08:40.071Z,0.98
2023-02-28T17:11:14.661Z,2.55
2023-02-28T17:13:46.606Z,1.58
2023-02-28T17:16:25.117Z,2.38
2023-02-28T17:18:58.252Z,1.70
2023-02-28T17:21:29.932Z,1.83
2023-02-28T17:24:01.706Z,1.48
2023-02-28T17:26:36.167Z,2.58
2023-02-28T17:29:11.221Z,2.30
2023-02-28T17:31:43.049Z,3.50
2023-02-28T17:34:19.585Z,2.78
2023-02-28T17:36:53.466Z,2.42
2023-02-28T17:39:25.675Z,1.95
2023-02-28T17:42:00.621Z,2.40
2023-02-28T17:44:32.137Z,2.15
2023-02-28T17:47:04.477Z,1.50
2023-02-28T17:49:35.972Z,1.73
2023-02-28T17:52:07.941Z,2.85
2023-02-28T17:54:39.855Z,2.45
2023-02-28T17:57:23.131Z,1.35
2023-02-28T17:59:58.158Z,2.60
2023-02-28T18:02:30.485Z,3.00
2023-02-28T18:05:01.971Z,1.85
2023-02-28T18:07:34.964Z,1.60
2023-02-28T18:10:06.397Z,1.80
2023-02-28T18:12:39.469Z,2.33
2023-02-28T18:15:11.869Z,3.75
2023-02-28T18:17:43.185Z,1.85
2023-02-28T18:20:15.929Z,3.97
2023-02-28T18:22:49.211Z,2.50
2023-02-28T18:25:23.631Z,2.45
2023-02-28T18:27:58.917Z,3.78
2023-02-28T18:30:35.344Z,2.50
2023-02-28T18:33:07.690Z,3.17
2023-02-28T18:35:39.966Z,3.00
2023-02-28T18:38:15.296Z,2.03
2023-02-28T18:40:55.030Z,3.25
2023-02-28T18:43:29.481Z,3.55
2023-02-28T18:46:01.327Z,1.65
2023-02-28T18:48:35.686Z,3.42
2023-02-28T18:51:11.831Z,4.57
2023-02-28T18:53:46.297Z,2.75
2023-02-28T18:58:53.670Z,2.45
2023-02-28T19:01:31.368Z,2.97
2023-02-28T19:04:04.526Z,2.95
2023-02-28T19:06:38.665Z,3.35
2023-02-28T19:09:10.909Z,3.58
2023-02-28T19:11:43.515Z,5.43
2023-02-28T19:14:16.756Z,3.83
2023-02-28T19:16:48.944Z,4.88
2023-02-28T19:19:21.546Z,3.45
2023-02-28T19:21:55.402Z,3.80
2023-02-28T19:24:27.532Z,3.83
2023-02-28T19:26:58.769Z,4.88
2023-02-28T19:29:31.617Z,4.32
2023-02-28T19:32:01.868Z,4.68
2023-02-28T19:34:32.091Z,7.05
2023-02-28T19:37:02.103Z,3.10
2023-02-28T19:39:41.150Z,4.28
2023-02-28T19:42:13.636Z,4.45
2023-02-28T19:44:48.488Z,4.88
2023-02-28T19:47:25.653Z,4.72
2023-02-28T19:49:57.136Z,4.55
2023-02-28T19:52:28.859Z,2.95
2023-02-28T19:55:00.770Z,3.10
2023-02-28T19:57:32.375Z,3.10
2023-02-28T20:00:07.208Z,4.47
2023-02-28T20:02:44.154Z,3.70
2023-02-28T20:05:14.878Z,3.67
2023-02-28T20:07:46.359Z,2.88
2023-02-28T20:10:18.031Z,3.03
2023-02-28T20:12:49.437Z,3.47
2023-02-28T20:15:23.668Z,2.58
2023-02-28T20:17:57.841Z,3.40
2023-02-28T20:20:30.080Z,3.05
2023-02-28T20:23:02.024Z,3.45
2023-02-28T20:25:32.979Z,5.18
2023-02-28T20:28:03.277Z,3.42
2023-02-28T20:30:38.161Z,3.10
2023-02-28T20:33:10.473Z,3.75
2023-02-28T20:35:41.856Z,4.50
2023-02-28T20:38:13.665Z,4.90
2023-02-28T20:40:44.089Z,2.92
2023-02-28T20:43:14.270Z,3.25
2023-02-28T20:45:54.975Z,3.80
2023-02-28T20:48:25.671Z,2.78
2023-02-28T20:50:59.090Z,2.72
2023-02-28T20:53:32.048Z,4.43
2023-02-28T20:56:04.216Z,4.43
2023-02-28T20:58:37.302Z,3.30
2023-02-28T21:01:16.172Z,2.60
2023-02-28T21:03:46.645Z,2.92
2023-02-28T21:06:17.569Z,3.83
2023-02-28T21:08:48.207Z,2.47
2023-02-28T21:11:20.428Z,2.65
2023-02-28T21:13:51.507Z,3.13
2023-02-28T21:16:26.202Z,1.88
2023-02-28T21:18:56.191Z,2.35
2023-02-28T21:21:27.722Z,2.70
2023-02-28T21:23:57.674Z,4.32
2023-02-28T21:26:28.633Z,3.13
2023-02-28T21:29:00.712Z,3.78
2023-02-28T21:31:35.891Z,2.88
2023-02-28T21:34:08.426Z,3.17
2023-02-28T21:36:41.061Z,2.83
2023-02-28T21:39:13.291Z,2.45
2023-02-28T21:41:43.621Z,2.88
2023-02-28T21:44:18.952Z,3.80
2023-02-28T21:46:57.086Z,3.78
2023-02-28T21:49:27.308Z,2.88
2023-02-28T21:51:57.294Z,2.55
2023-02-28T21:54:27.666Z,2.85
2023-02-28T21:56:59.814Z,2.80
2023-02-28T21:59:30.458Z,3.67
2023-02-28T22:02:05.570Z,3.38
2023-02-28T22:04:36.278Z,4.97
2023-02-28T22:07:07.620Z,4.32
2023-02-28T22:09:37.571Z,3.65
2023-02-28T22:12:08.628Z,4.05
2023-02-28T22:14:39.834Z,2.70
2023-02-28T22:17:12.519Z,4.68
2023-02-28T22:19:43.153Z,3.53
2023-02-28T22:22:13.444Z,3.65
2023-02-28T22:24:43.695Z,3.15
2023-02-28T22:27:13.816Z,3.10
2023-02-28T22:29:44.098Z,3.85
2023-02-28T22:32:16.920Z,4.43
2023-02-28T22:34:47.508Z,3.80
2023-02-28T22:37:17.790Z,2.75
2023-02-28T22:39:47.884Z,2.53
2023-02-28T22:42:17.968Z,4.80
2023-02-28T22:44:48.984Z,4.45
2023-02-28T22:47:22.594Z,6.10
2023-02-28T22:49:52.762Z,6.32
2023-02-28T22:52:22.785Z,5.32
2023-02-28T22:54:53.960Z,5.78
2023-02-28T22:57:24.311Z,6.07
2023-02-28T22:59:54.250Z,3.80
2023-02-28T23:02:27.120Z,3.97
2023-02-28T23:04:57.975Z,5.13
2023-02-28T23:07:28.162Z,4.47
2023-02-28T23:09:58.272Z,3.90
2023-02-28T23:12:28.336Z,4.50
2023-02-28T23:14:58.258Z,3.45
2023-02-28T23:17:31.030Z,3.25
2023-02-28T23:20:01.591Z,3.05
2023-02-28T23:22:31.709Z,4.30
2023-02-28T23:25:01.929Z,3.72
2023-02-28T23:27:32.290Z,3.70
2023-02-28T23:30:03.062Z,3.75
2023-02-28T23:32:35.951Z,3.92
2023-02-28T23:35:07.152Z,4.95
2023-02-28T23:37:37.660Z,5.13
2023-02-28T23:40:10.930Z,7.30
2023-02-28T23:42:40.948Z,5.43
2023-02-28T23:45:12.545Z,3.67
2023-02-28T23:47:45.337Z,4.25
2023-02-28T23:50:15.639Z,4.85
2023-02-28T23:52:45.638Z,3.45
2023-02-28T23:55:15.664Z,4.38
2023-02-28T23:57:45.894Z,3.42
